createdAt,value
2023-04-13T00:03:33.503Z,11.75
2023-04-13T00:08:37.170Z,10.98
2023-04-13T00:13:43.046Z,9.40
2023-04-13T00:18:46.486Z,12.63
2023-04-13T00:23:49.748Z,8.77
2023-04-13T00:28:54.611Z,10.35
2023-04-13T00:33:58.033Z,13.80
2023-04-13T00:39:04.407Z,12.63
2023-04-13T00:44:09.188Z,10.50
2023-04-13T00:49:12.642Z,14.20
2023-04-13T00:54:16.933Z,11.70
2023-04-13T00:59:22.574Z,12.07
2023-04-13T01:04:27.407Z,11.00
2023-04-13T01:09:35.468Z,11.15
2023-04-13T01:14:45.526Z,18.60
2023-04-13T01:19:58.206Z,17.60
2023-04-13T01:25:27.957Z,15.38
2023-04-13T01:30:35.941Z,17.10
2023-04-13T01:35:39.878Z,16.95
2023-04-13T01:40:46.020Z,20.88
2023-04-13T01:46:01.039Z,22.55
2023-04-13T01:51:11.445Z,21.15
2023-04-13T01:56:26.682Z,14.75
2023-04-13T02:01:37.491Z,19.73
2023-04-13T02:06:41.402Z,16.98
2023-04-13T02:11:45.704Z,19.83
2023-04-13T02:16:50.737Z,17.80
2023-04-13T02:21:56.021Z,17.08
2023-04-13T02:26:59.316Z,19.63
2023-04-13T02:32:05.184Z,18.98
2023-04-13T02:37:09.395Z,21.20
2023-04-13T02:42:12.928Z,17.08
2023-04-13T02:47:17.880Z,17.35
2023-04-13T02:57:34.526Z,21.00
2023-04-13T03:07:46.291Z,15.77
2023-04-13T03:12:50.848Z,14.77
2023-04-13T03:17:55.717Z,16.50
2023-04-13T03:23:01.928Z,21.83
2023-04-13T03:28:09.164Z,16.30
2023-04-13T03:33:19.068Z,13.07
2023-04-13T03:38:23.389Z,16.10
2023-04-13T03:43:28.495Z,19.10
2023-04-13T03:48:42.590Z,16.27
2023-04-13T03:53:50.827Z,18.90
2023-04-13T03:58:59.498Z,18.27
2023-04-13T04:04:05.365Z,12.05
2023-04-13T04:09:10.207Z,15.57
2023-04-13T04:14:19.344Z,25.42
2023-04-13T04:19:32.023Z,15.35
2023-04-13T04:24:36.007Z,16.50
2023-04-13T04:29:39.453Z,15.93
2023-04-13T04:35:07.720Z,15.02
2023-04-13T04:40:18.272Z,20.73
2023-04-13T04:45:22.062Z,18.50
2023-04-13T04:50:30.290Z,26.02
2023-04-13T04:55:44.670Z,21.02
2023-04-13T05:00:57.186Z,17.40
2023-04-13T05:06:02.509Z,17.42
2023-04-13T05:11:09.125Z,26.35
2023-04-13T05:16:13.023Z,18.23
2023-04-13T05:21:19.094Z,16.92
2023-04-13T05:26:30.936Z,22.83
2023-04-13T05:31:35.744Z,19.17
2023-04-13T05:36:41.938Z,14.80
2023-04-13T05:41:50.420Z,17.55
2023-04-13T05:46:55.966Z,11.63
2023-04-13T05:52:01.025Z,23.10
2023-04-13T05:57:16.229Z,23.85
2023-04-13T06:02:26.623Z,18.00
2023-04-13T06:07:32.501Z,18.75
2023-04-13T06:12:35.996Z,18.83
2023-04-13T06:17:39.924Z,20.30
2023-04-13T06:22:45.105Z,15.55
2023-04-13T06:27:50.120Z,18.15
2023-04-13T06:32:55.401Z,19.52
2023-04-13T06:38:02.946Z,17.23
2023-04-13T06:43:29.149Z,20.95
2023-04-13T06:48:50.934Z,14.52
2023-04-13T06:54:00.476Z,17.77
2023-04-13T06:59:04.640Z,17.88
2023-04-13T07:04:09.013Z,11.50
2023-04-13T07:19:25.603Z,14.55
2023-04-13T07:24:31.155Z,12.23
2023-04-13T07:29:37.821Z,11.13
2023-04-13T07:34:45.998Z,9.10
2023-04-13T07:39:50.744Z,10.27
2023-04-13T07:44:58.292Z,8.00
2023-04-13T07:50:07.116Z,8.65
2023-04-13T07:55:12.716Z,6.63
2023-04-13T08:00:23.392Z,6.07
2023-04-13T08:05:34.693Z,6.35
2023-04-13T08:10:40.603Z,6.10
2023-04-13T08:15:45.116Z,2.80
2023-04-13T08:20:49.419Z,5.18
2023-04-13T08:25:56.798Z,9.05
2023-04-13T08:31:00.193Z,4.88
2023-04-13T08:36:04.264Z,2.92
2023-04-13T08:41:11.752Z,2.28
2023-04-13T08:51:28.727Z,2.85
2023-04-13T08:56:45.556Z,2.75
2023-04-13T09:01:56.680Z,5.00
2023-04-13T09:07:04.967Z,1.73
2023-04-13T09:12:15.024Z,2.80
2023-04-13T09:17:26.291Z,3.08
2023-04-13T09:22:31.911Z,4.25
2023-04-13T09:27:37.617Z,4.10
2023-04-13T09:32:41.511Z,14.27
2023-04-13T09:37:45.294Z,3.22
2023-04-13T09:42:57.065Z,4.45
2023-04-13T09:48:03.119Z,2.95
2023-04-13T09:53:09.276Z,1.95
2023-04-13T09:58:15.749Z,2.17
2023-04-13T10:03:21.606Z,3.42
2023-04-13T10:08:36.656Z,2.60
2023-04-13T10:13:52.231Z,1.90
2023-04-13T10:19:01.921Z,2.20
2023-04-13T10:24:12.111Z,1.35
2023-04-13T10:29:27.939Z,3.50
2023-04-13T10:34:32.631Z,1.27
2023-04-13T10:39:37.735Z,2.80
2023-04-13T10:44:44.178Z,2.42
2023-04-13T10:49:49.121Z,1.15
2023-04-13T10:54:53.227Z,1.40
2023-04-13T10:59:59.542Z,4.35
2023-04-13T11:05:04.734Z,4.07
2023-04-13T11:10:10.701Z,1.08
2023-04-13T11:15:21.115Z,2.75
2023-04-13T11:20:32.214Z,1.88
2023-04-13T11:25:35.612Z,3.47
2023-04-13T11:30:41.099Z,2.63
2023-04-13T11:35:49.851Z,2.03
2023-04-13T11:41:14.356Z,2.33
2023-04-13T11:46:25.783Z,2.72
2023-04-13T11:51:29.525Z,2.92
2023-04-13T11:56:34.050Z,3.17
2023-04-13T12:01:48.423Z,4.63
2023-04-13T12:06:54.543Z,1.88
2023-04-13T12:12:39.182Z,5.70
2023-04-13T12:17:38.863Z,1.00
2023-04-13T12:22:54.923Z,1.55
2023-04-13T12:28:04.521Z,3.72
2023-04-13T12:33:09.298Z,4.63
2023-04-13T12:38:12.801Z,1.65
2023-04-13T12:43:16.498Z,3.83
2023-04-13T12:48:22.545Z,3.97
2023-04-13T12:53:26.348Z,1.13
2023-04-13T12:58:29.985Z,2.30
2023-04-13T13:03:37.206Z,2.33
2023-04-13T13:08:40.962Z,4.88
2023-04-13T13:13:44.579Z,4.68
2023-04-13T13:18:51.537Z,4.20
2023-04-13T13:23:54.936Z,5.38
2023-04-13T13:28:59.418Z,1.77
2023-04-13T13:34:04.978Z,2.15
2023-04-13T13:39:08.589Z,3.53
2023-04-13T13:44:13.074Z,1.85
2023-04-13T13:49:17.879Z,2.92
2023-04-13T13:54:27.222Z,1.33
2023-04-13T13:59:30.708Z,3.75
2023-04-13T14:04:36.895Z,2.30
2023-04-13T14:09:40.429Z,2.90
2023-04-13T14:14:44.026Z,4.50
2023-04-13T14:19:48.700Z,4.00
2023-04-13T14:24:52.109Z,5.70
2023-04-13T14:29:55.768Z,5.72
2023-04-13T14:35:01.237Z,2.38
2023-04-13T14:40:13.981Z,1.17
2023-04-13T14:45:17.762Z,1.77
2023-04-13T14:50:22.795Z,1.27
2023-04-13T14:55:27.480Z,2.20
2023-04-13T15:00:40.855Z,1.10
2023-04-13T15:05:49.864Z,2.15
2023-04-13T15:10:53.666Z,4.13
2023-04-13T15:15:57.324Z,7.13
2023-04-13T15:21:04.073Z,2.75
2023-04-13T15:26:08.630Z,3.75
2023-04-13T15:31:12.178Z,2.35
2023-04-13T15:36:17.482Z,2.35
2023-04-13T15:41:25.637Z,2.38
2023-04-13T15:46:32.769Z,5.30
2023-04-13T15:51:37.811Z,1.45
2023-04-13T15:56:43.114Z,5.10
2023-04-13T16:01:48.644Z,1.10
2023-04-13T16:07:09.218Z,2.20
2023-04-13T16:12:17.538Z,4.35
2023-04-13T16:17:31.569Z,2.05
2023-04-13T16:22:37.508Z,2.97
2023-04-13T16:27:41.586Z,1.33
2023-04-13T16:32:45.714Z,2.70
2023-04-13T16:37:50.617Z,2.60
2023-04-13T16:42:53.933Z,3.38
2023-04-13T16:47:57.197Z,2.90
2023-04-13T16:53:01.873Z,4.90
2023-04-13T16:58:07.493Z,0.90
2023-04-13T17:03:11.631Z,1.58
2023-04-13T17:08:17.120Z,2.60
2023-04-13T17:13:20.841Z,3.53
2023-04-13T17:18:24.245Z,4.32
2023-04-13T17:23:29.034Z,9.23
2023-04-13T17:28:32.321Z,3.25
2023-04-13T17:33:35.977Z,2.00
2023-04-13T17:38:40.979Z,2.25
2023-04-13T17:43:44.302Z,2.25
2023-04-13T17:48:47.858Z,1.33
2023-04-13T17:53:52.633Z,3.22
2023-04-13T17:58:55.973Z,1.67
2023-04-13T18:03:59.890Z,2.17
2023-04-13T18:09:05.188Z,4.43
2023-04-13T18:14:12.389Z,2.15
2023-04-13T18:19:16.864Z,2.08
2023-04-13T18:24:22.094Z,3.65
2023-04-13T18:29:25.549Z,3.58
2023-04-13T18:34:30.730Z,10.50
2023-04-13T18:39:36.084Z,6.23
2023-04-13T18:44:39.593Z,7.65
2023-04-13T18:49:43.630Z,4.07
2023-04-13T18:54:48.702Z,3.33
2023-04-13T18:59:52.162Z,3.53
2023-04-13T19:04:55.610Z,2.95
2023-04-13T19:10:00.458Z,3.03
2023-04-13T19:20:11.051Z,3.42
2023-04-13T19:25:16.404Z,4.38
2023-04-13T19:35:24.477Z,4.43
2023-04-13T19:40:29.248Z,5.60
2023-04-13T19:50:36.800Z,7.45
2023-04-13T19:55:41.424Z,5.30
2023-04-13T20:00:47.277Z,18.23
2023-04-13T20:05:50.737Z,6.32
2023-04-13T20:10:56.025Z,10.70
2023-04-13T20:16:00.727Z,11.85
2023-04-13T20:21:04.798Z,10.65
2023-04-13T20:26:10.106Z,10.85
2023-04-13T20:31:14.097Z,15.25
2023-04-13T20:36:17.888Z,14.90
2023-04-13T20:41:24.550Z,12.60
2023-04-13T20:46:34.624Z,9.05
2023-04-13T20:51:39.760Z,3.45
2023-04-13T20:56:44.659Z,4.10
2023-04-13T21:01:49.006Z,9.93
2023-04-13T21:06:52.422Z,7.23
2023-04-13T21:11:57.432Z,4.22
2023-04-13T21:17:00.701Z,3.65
2023-04-13T21:22:04.095Z,5.70
2023-04-13T21:27:08.797Z,3.58
2023-04-13T21:32:13.479Z,6.60
2023-04-13T21:37:21.130Z,5.40
2023-04-13T21:42:26.050Z,4.55
2023-04-13T21:47:29.659Z,3.78
2023-04-13T21:52:33.116Z,4.18
2023-04-13T21:57:37.676Z,5.05
2023-04-13T22:02:41.538Z,7.22
2023-04-13T22:07:45.560Z,12.43
2023-04-13T22:12:50.129Z,11.35
2023-04-13T22:17:53.776Z,13.45
2023-04-13T22:22:57.116Z,4.93
2023-04-13T22:28:02.117Z,5.00
2023-04-13T22:33:06.399Z,4.05
2023-04-13T22:38:10.123Z,7.38
2023-04-13T22:43:14.751Z,4.72
2023-04-13T22:48:18.155Z,12.65
2023-04-13T22:53:21.580Z,9.20
2023-04-13T22:58:26.625Z,5.43
2023-04-13T23:03:29.993Z,9.18
2023-04-13T23:08:33.751Z,10.32
2023-04-13T23:13:40.047Z,8.75
2023-04-13T23:18:43.393Z,12.55
2023-04-13T23:23:47.101Z,11.63
2023-04-13T23:28:51.821Z,12.27
2023-04-13T23:33:55.490Z,11.38
2023-04-13T23:38:59.537Z,15.77
2023-04-13T23:44:04.436Z,8.50
2023-04-13T23:49:08.362Z,9.75
2023-04-13T23:54:12.000Z,12.57
2023-04-13T23:59:18.808Z,9.25
